Sail Way — CRA4549 — position and weather

sailwx.info

Track history (hours):
 
Tides and Currents Weather Stations Pressure Air Temp Water Temp Dewpoint Dewpoint Depression Visibility Wind Speed Wind Dir Waves Ship Positions

Sail Way

Last reported at 2017-Sep-21 08:15 UTC. Time now 2017-Oct-20 01:52 UTC.
Position N 38°52' E 001°26'.
Warning: this ship's position is 28 days out of date.

Length 12 m.

Type: Sailing vessel. MMSI: 263912770.

Date/timePositionNaut miles runAvg speedWind from/ knotsBaromVisibWave heightAir tempDewpointWater temp
2017-Sep-21 08:15N 38°52' E 001°26'2 6.5
2017-Sep-21 08:00N 38°53' E 001°27'2 0.1
2017-Sep-20 17:18N 38°55' E 001°26'0 0.0
2017-Sep-20 07:31N 38°55' E 001°26'0 0.0
2017-Sep-20 07:28N 38°55' E 001°26'0 0.0
2017-Sep-20 06:59N 38°55' E 001°26'23 1.1
2017-Sep-19 10:15N 39°08' E 001°51'2 6.8
2017-Sep-19 09:57N 39°10' E 001°53'3 6.6
2017-Sep-19 09:29N 39°12' E 001°55'3 6.7
2017-Sep-19 09:00N 39°14' E 001°58'4 6.7
2017-Sep-19 08:27N 39°17' E 002°02'3 6.7
2017-Sep-19 07:57N 39°19' E 002°05'3 6.7
2017-Sep-19 07:30N 39°22' E 002°07'3 6.7
2017-Sep-19 06:59N 39°24' E 002°10'4 6.9
2017-Sep-19 06:27N 39°27' E 002°14'9 0.4
2017-Sep-18 07:44N 39°29' E 002°25'5 6.0
2017-Sep-18 06:54N 39°27' E 002°31'2 5.2
2017-Sep-18 06:26N 39°29' E 002°33'2 5.2
2017-Sep-18 05:59N 39°30' E 002°35'2 5.1
2017-Sep-18 05:30N 39°32' E 002°38'2 3.2
2017-Sep-18 05:00N 39°34' E 002°38'  
2017-Sep-13 14:13N 39°34' E 002°38'0 0.0
2017-Sep-13 13:58N 39°34' E 002°38'0 0.0
2017-Sep-13 13:24N 39°34' E 002°38'0 0.2
2017-Sep-13 13:00N 39°34' E 002°38'2 4.3
2017-Sep-13 12:30N 39°32' E 002°39'3 6.7
2017-Sep-13 12:00N 39°29' E 002°41'3 6.7
2017-Sep-13 11:30N 39°26' E 002°43'3 6.2
2017-Sep-13 11:00N 39°23' E 002°45'3 6.0
2017-Sep-13 10:30N 39°20' E 002°47'4 5.8
2017-Sep-13 09:53N 39°17' E 002°49'3 5.8
2017-Sep-13 09:26N 39°15' E 002°51'3 5.8
2017-Sep-13 08:51N 39°12' E 002°53'4 0.2
2017-Sep-12 11:56N 39°09' E 002°56'3 7.5
2017-Sep-12 11:29N 39°13' E 002°56'4 7.4
2017-Sep-12 11:00N 39°16' E 002°57'3 6.4
2017-Sep-12 10:30N 39°19' E 002°57'2 0.1
2017-Sep-11 16:52N 39°21' E 002°57'2 5.2
2017-Sep-11 16:25N 39°20' E 002°54'3 7.2
2017-Sep-11 16:00N 39°18' E 002°51'4 6.1
2017-Sep-11 15:25N 39°17' E 002°47'3 6.5
2017-Sep-11 14:57N 39°15' E 002°44'10 6.4
2017-Sep-11 13:24N 39°13' E 002°31'2 6.2
2017-Sep-11 13:00N 39°12' E 002°28'2 4.3
2017-Sep-11 12:29N 39°12' E 002°25'4 6.8
2017-Sep-11 11:59N 39°11' E 002°21'4 6.8
2017-Sep-11 11:21N 39°10' E 002°15'4 6.8
2017-Sep-11 10:44N 39°09' E 002°10'  
Track history (hours):
 
Tides and Currents Weather Stations Pressure Air Temp Water Temp Dewpoint Dewpoint Depression Visibility Wind Speed Wind Dir Waves Ship Positions

Sail Way

Last reported at 2017-Sep-21 08:15 UTC. Time now 2017-Oct-20 01:52 UTC.
Position N 38°52' E 001°26'.
Warning: this ship's position is 28 days out of date.

Length 12 m.

Type: Sailing vessel. MMSI: 263912770.

Date/timePositionNaut miles runAvg speedWind from/ knotsBaromVisibWave heightAir tempDewpointWater temp
2017-Sep-21 08:15N 38°52' E 001°26'2 6.5
2017-Sep-21 08:00N 38°53' E 001°27'2 0.1
2017-Sep-20 17:18N 38°55' E 001°26'0 0.0
2017-Sep-20 07:31N 38°55' E 001°26'0 0.0
2017-Sep-20 07:28N 38°55' E 001°26'0 0.0
2017-Sep-20 06:59N 38°55' E 001°26'23 1.1
2017-Sep-19 10:15N 39°08' E 001°51'2 6.8
2017-Sep-19 09:57N 39°10' E 001°53'3 6.6
2017-Sep-19 09:29N 39°12' E 001°55'3 6.7
2017-Sep-19 09:00N 39°14' E 001°58'4 6.7
2017-Sep-19 08:27N 39°17' E 002°02'3 6.7
2017-Sep-19 07:57N 39°19' E 002°05'3 6.7
2017-Sep-19 07:30N 39°22' E 002°07'3 6.7
2017-Sep-19 06:59N 39°24' E 002°10'4 6.9
2017-Sep-19 06:27N 39°27' E 002°14'9 0.4
2017-Sep-18 07:44N 39°29' E 002°25'5 6.0
2017-Sep-18 06:54N 39°27' E 002°31'2 5.2
2017-Sep-18 06:26N 39°29' E 002°33'2 5.2
2017-Sep-18 05:59N 39°30' E 002°35'2 5.1
2017-Sep-18 05:30N 39°32' E 002°38'2 3.2
2017-Sep-18 05:00N 39°34' E 002°38'  
2017-Sep-13 14:13N 39°34' E 002°38'0 0.0
2017-Sep-13 13:58N 39°34' E 002°38'0 0.0
2017-Sep-13 13:24N 39°34' E 002°38'0 0.2
2017-Sep-13 13:00N 39°34' E 002°38'2 4.3
2017-Sep-13 12:30N 39°32' E 002°39'3 6.7
2017-Sep-13 12:00N 39°29' E 002°41'3 6.7
2017-Sep-13 11:30N 39°26' E 002°43'3 6.2
2017-Sep-13 11:00N 39°23' E 002°45'3 6.0
2017-Sep-13 10:30N 39°20' E 002°47'4 5.8
2017-Sep-13 09:53N 39°17' E 002°49'3 5.8
2017-Sep-13 09:26N 39°15' E 002°51'3 5.8
2017-Sep-13 08:51N 39°12' E 002°53'4 0.2
2017-Sep-12 11:56N 39°09' E 002°56'3 7.5
2017-Sep-12 11:29N 39°13' E 002°56'4 7.4
2017-Sep-12 11:00N 39°16' E 002°57'3 6.4
2017-Sep-12 10:30N 39°19' E 002°57'2 0.1
2017-Sep-11 16:52N 39°21' E 002°57'2 5.2
2017-Sep-11 16:25N 39°20' E 002°54'3 7.2
2017-Sep-11 16:00N 39°18' E 002°51'4 6.1
2017-Sep-11 15:25N 39°17' E 002°47'3 6.5
2017-Sep-11 14:57N 39°15' E 002°44'10 6.4
2017-Sep-11 13:24N 39°13' E 002°31'2 6.2
2017-Sep-11 13:00N 39°12' E 002°28'2 4.3
2017-Sep-11 12:29N 39°12' E 002°25'4 6.8
2017-Sep-11 11:59N 39°11' E 002°21'4 6.8
2017-Sep-11 11:21N 39°10' E 002°15'4 6.8
2017-Sep-11 10:44N 39°09' E 002°10'  

Dump ship's entire track history